.
WxDataArchive / Data Records for 2005-12-28
2005-12-27 December 2005 2005-12-29

Data Records for Wednesday, 28 December 2005

Time	Temp	Chill	HIndex	Humid	Dewpt	 Wind 	HiWind	WindDir	Rain 	Barom 
-----	----	-----	------	-----	-----	------	------	-------	-----	----- 
00:00	38.8	38.8	38.8	91	36.4	2	4	112	0.00	29.587 
00:05	38.8	38.8	38.8	91	36.4	1	3	112	0.00	29.587 
00:10	38.8	38.8	38.8	91	36.4	1	2	90	0.00	29.587 
00:15	38.9	38.9	38.9	91	36.5	0	1	90	0.00	29.579 
00:20	38.9	38.9	38.9	91	36.5	0	2	90	0.00	29.579 
00:25	39.1	39.1	39.1	91	36.7	1	2	90	0.00	29.579 
00:30	39.1	39.1	39.1	90	36.4	1	2	90	0.00	29.573 
00:35	39.2	39.2	39.2	90	36.5	1	2	90	0.00	29.573 
00:40	39.2	39.2	39.2	90	36.5	0	2	90	0.00	29.573 
00:45	39.3	39.3	39.3	90	36.6	1	2	90	0.00	29.565 
00:50	39.5	39.5	39.5	90	36.8	1	2	90	0.00	29.565 
00:55	39.6	39.6	39.6	90	36.9	0	1	90	0.00	29.565 
01:00	39.6	39.6	39.6	90	36.9	0	0	---	0.00	29.561 
01:05	39.8	39.8	39.8	90	37.1	0	0	---	0.00	29.561 
01:10	39.9	39.9	39.9	90	37.2	0	0	---	0.00	29.561 
01:15	39.9	39.9	39.9	90	37.2	0	2	90	0.00	29.555 
01:20	40.1	40.1	40.1	90	37.4	1	2	90	0.00	29.555 
01:25	40.3	40.3	40.3	89	37.3	1	2	90	0.00	29.555 
01:30	40.5	40.5	40.5	88	37.2	1	2	90	0.00	29.551 
01:35	40.6	40.6	40.6	89	37.6	0	1	90	0.01	29.551 
01:40	40.5	40.5	40.5	89	37.5	1	3	90	0.00	29.551 
01:45	40.5	40.5	40.5	89	37.5	1	3	90	0.00	29.540 
01:50	40.3	40.3	40.3	90	37.6	1	3	90	0.00	29.540 
01:55	40.2	40.2	40.2	90	37.5	1	3	112	0.00	29.540 
02:00	40.2	40.2	40.2	90	37.5	0	2	90	0.00	29.539 
02:05	40.1	40.1	40.1	90	37.4	1	2	112	0.00	29.539 
02:10	40.1	40.1	40.1	90	37.4	1	3	112	0.00	29.539 
02:15	39.9	39.9	39.9	90	37.2	1	3	90	0.00	29.533 
02:20	39.9	39.9	39.9	90	37.2	2	4	112	0.00	29.533 
02:25	39.8	39.8	39.8	91	37.4	1	2	90	0.00	29.533 
02:30	39.6	39.6	39.6	91	37.2	1	2	90	0.00	29.531 
02:35	39.6	39.6	39.6	91	37.2	1	2	90	0.00	29.531 
02:40	39.5	39.5	39.5	91	37.1	2	3	90	0.00	29.531 
02:45	39.5	39.5	39.5	92	37.4	1	3	90	0.00	29.528 
02:50	39.3	39.3	39.3	92	37.2	1	3	90	0.00	29.528 
02:55	39.3	39.3	39.3	92	37.2	1	3	90	0.01	29.528 
03:00	39.3	39.3	39.3	92	37.2	0	1	90	0.00	29.525 
03:05	39.3	39.3	39.3	92	37.2	1	2	90	0.00	29.525 
03:10	39.3	39.3	39.3	92	37.2	2	4	112	0.00	29.525 
03:15	39.2	39.2	39.2	92	37.1	2	4	90	0.00	29.521 
03:20	39.2	39.2	39.2	92	37.1	1	3	90	0.00	29.521 
03:25	39.2	39.2	39.2	93	37.3	0	2	90	0.00	29.521 
03:30	39.2	39.2	39.2	93	37.3	1	3	90	0.00	29.512 
03:35	39.2	39.2	39.2	93	37.3	1	2	90	0.00	29.512 
03:40	39.2	39.2	39.2	93	37.3	1	3	90	0.00	29.512 
03:45	39.2	39.2	39.2	93	37.3	2	3	90	0.00	29.509 
03:50	39.2	39.2	39.2	93	37.3	2	4	90	0.00	29.509 
03:55	39.2	39.2	39.2	93	37.3	2	3	90	0.00	29.509 
04:00	39.2	39.2	39.2	93	37.3	1	3	90	0.00	29.507 
04:05	39.2	39.2	39.2	93	37.3	1	3	90	0.00	29.507 
04:10	39.2	39.2	39.2	93	37.3	1	3	112	0.00	29.507 
04:15	39.2	39.2	39.2	93	37.3	1	3	90	0.00	29.507 
04:20	39.2	39.2	39.2	93	37.3	1	2	90	0.00	29.507 
04:25	39.1	39.1	39.1	93	37.2	1	2	90	0.00	29.507 
04:30	39.1	39.1	39.1	93	37.2	2	4	90	0.00	29.495 
04:35	39.1	39.1	39.1	93	37.2	1	2	90	0.00	29.495 
04:40	39.1	39.1	39.1	93	37.2	1	3	90	0.00	29.495 
04:45	39.2	39.2	39.2	93	37.3	1	2	90	0.00	29.498 
04:50	39.2	39.2	39.2	93	37.3	1	2	90	0.00	29.498 
04:55	39.3	39.3	39.3	93	37.4	2	4	112	0.00	29.498 
05:00	39.3	39.3	39.3	93	37.4	1	3	112	0.00	29.494 
05:05	39.3	39.3	39.3	93	37.4	2	3	112	0.00	29.494 
05:10	39.3	39.3	39.3	93	37.4	1	2	90	0.00	29.494 
05:15	39.5	39.5	39.5	93	37.6	1	3	90	0.00	29.486 
05:20	39.5	39.5	39.5	93	37.6	1	2	90	0.00	29.486 
05:25	39.5	39.5	39.5	93	37.6	1	3	90	0.00	29.486 
05:30	39.5	39.5	39.5	93	37.6	1	3	90	0.00	29.483 
05:35	39.6	39.6	39.6	93	37.7	1	2	90	0.00	29.483 
05:40	39.6	39.6	39.6	93	37.7	1	2	90	0.00	29.483 
05:45	39.6	39.6	39.6	93	37.7	0	2	90	0.00	29.483 
05:50	39.6	39.6	39.6	93	37.7	1	2	90	0.00	29.483 
05:55	39.6	39.6	39.6	92	37.5	1	2	90	0.00	29.483 
06:00	39.8	39.8	39.8	92	37.7	1	2	90	0.00	29.484 
06:05	39.6	39.6	39.6	92	37.5	1	2	90	0.00	29.484 
06:10	39.6	39.6	39.6	92	37.5	1	3	90	0.00	29.484 
06:15	39.8	39.8	39.8	92	37.7	1	2	90	0.00	29.483 
06:20	39.8	39.8	39.8	92	37.7	1	2	90	0.00	29.483 
06:25	39.6	39.6	39.6	92	37.5	1	3	90	0.00	29.483 
06:30	39.8	39.8	39.8	92	37.7	1	3	90	0.00	29.483 
06:35	39.8	39.8	39.8	92	37.7	1	3	90	0.00	29.483 
06:40	39.8	39.8	39.8	92	37.7	1	3	90	0.00	29.483 
06:45	39.8	39.8	39.8	92	37.7	2	4	90	0.00	29.471 
06:50	39.8	39.8	39.8	92	37.7	2	4	90	0.00	29.471 
06:55	39.9	39.9	39.9	92	37.8	1	5	90	0.00	29.471 
07:00	39.9	39.9	39.9	92	37.8	0	2	90	0.00	29.481 
07:05	39.9	39.9	39.9	92	37.8	0	1	90	0.00	29.481 
07:10	39.9	39.9	39.9	92	37.8	0	1	90	0.00	29.481 
07:15	39.9	39.9	39.9	92	37.8	0	1	90	0.00	29.478 
07:20	39.9	39.9	39.9	92	37.8	0	0	---	0.00	29.478 
07:25	39.9	39.9	39.9	92	37.8	0	0	---	0.00	29.478 
07:30	39.9	39.9	39.9	92	37.8	0	2	90	0.00	29.467 
07:35	39.8	39.8	39.8	92	37.7	1	2	90	0.00	29.467 
07:40	39.8	39.8	39.8	92	37.7	1	3	90	0.00	29.467 
07:45	39.9	39.9	39.9	92	37.8	0	1	90	0.00	29.469 
07:50	39.9	39.9	39.9	93	38.0	0	2	90	0.00	29.469 
07:55	40.1	40.1	40.1	93	38.2	0	1	90	0.00	29.469 
08:00	40.1	40.1	40.1	93	38.2	0	2	90	0.00	29.464 
08:05	40.1	40.1	40.1	93	38.2	0	1	90	0.00	29.464 
08:10	40.2	40.2	40.2	93	38.3	1	2	90	0.00	29.464 
08:15	40.3	40.3	40.3	93	38.4	1	3	90	0.00	29.459 
08:20	40.3	40.3	40.3	92	38.2	2	4	112	0.00	29.459 
08:25	40.5	40.5	40.5	92	38.4	2	4	90	0.00	29.459 
08:30	40.6	40.6	40.6	92	38.5	1	2	90	0.00	29.459 
08:35	40.6	40.6	40.6	92	38.5	1	3	90	0.00	29.459 
08:40	40.8	40.8	40.8	92	38.7	1	3	90	0.00	29.459 
08:45	40.8	40.8	40.8	92	38.7	1	2	90	0.00	29.464 
08:50	40.8	40.8	40.8	92	38.7	1	3	90	0.00	29.464 
08:55	40.6	40.6	40.6	92	38.5	2	4	90	0.00	29.464 
09:00	40.6	40.6	40.6	92	38.5	1	3	90	0.00	29.454 
09:05	40.5	40.5	40.5	92	38.4	2	4	90	0.00	29.454 
09:10	40.5	40.5	40.5	92	38.4	2	4	90	0.00	29.454 
09:15	40.5	40.5	40.5	92	38.4	1	4	90	0.00	29.453 
09:20	40.5	40.5	40.5	92	38.4	1	3	90	0.00	29.453 
09:25	40.5	40.5	40.5	92	38.4	1	3	90	0.00	29.453 
09:30	40.6	40.6	40.6	92	38.5	1	3	90	0.00	29.450 
09:35	40.6	40.6	40.6	92	38.5	1	3	90	0.01	29.450 
09:40	40.8	40.8	40.8	92	38.7	1	3	90	0.00	29.450 
09:45	40.8	40.8	40.8	92	38.7	1	3	90	0.00	29.451 
09:50	40.9	40.9	40.9	93	39.0	2	4	112	0.00	29.451 
09:55	41.1	41.1	41.1	93	39.2	2	5	90	0.00	29.451 
10:00	41.1	41.1	41.1	93	39.2	1	3	90	0.00	29.445 
10:05	41.1	41.1	41.1	93	39.2	1	3	68	0.00	29.445 
10:10	41.1	41.1	41.1	93	39.2	1	2	90	0.00	29.445 
10:15	41.2	41.2	41.2	93	39.3	0	1	90	0.01	29.447 
10:20	41.2	41.2	41.2	93	39.3	1	3	90	0.00	29.447 
10:25	41.3	41.3	41.3	93	39.4	0	2	90	0.00	29.447 
10:30	41.3	41.3	41.3	93	39.4	0	1	90	0.00	29.442 
10:35	41.3	41.3	41.3	93	39.4	0	2	90	0.00	29.442 
10:40	41.3	41.3	41.3	93	39.4	0	1	90	0.00	29.442 
10:45	41.3	41.3	41.3	93	39.4	1	2	90	0.00	29.438 
10:50	41.3	41.3	41.3	93	39.4	0	1	90	0.00	29.438 
10:55	41.3	41.3	41.3	93	39.4	1	2	90	0.00	29.438 
11:00	41.3	41.3	41.3	93	39.4	2	3	90	0.01	29.435 
11:05	41.5	41.5	41.5	93	39.6	2	5	90	0.00	29.435 
11:10	41.5	41.5	41.5	93	39.6	2	4	90	0.00	29.435 
11:15	41.5	41.5	41.5	93	39.6	1	3	112	0.00	29.425 
11:20	41.5	41.5	41.5	93	39.6	0	0	---	0.00	29.425 
11:25	41.5	41.5	41.5	93	39.6	0	1	112	0.03	29.425 
11:30	41.6	41.6	41.6	93	39.7	1	4	112	0.01	29.403 
11:35	42.1	42.1	42.1	94	40.5	2	4	90	0.00	29.403 
11:40	42.8	42.8	42.8	94	41.2	2	4	112	0.00	29.403 
11:45	43.9	43.9	43.9	94	42.3	2	4	112	0.00	29.397 
11:50	44.5	44.5	44.5	94	42.9	2	4	112	0.00	29.397 
11:55	44.6	44.6	44.6	92	42.4	2	4	90	0.00	29.397 
12:00	44.3	44.3	44.3	92	42.1	2	4	90	0.00	29.395 
12:05	44.1	44.1	44.1	92	41.9	2	3	112	0.00	29.395 
12:10	43.9	43.9	43.9	92	41.7	1	3	112	0.00	29.395 
12:15	43.9	43.9	43.9	92	41.7	1	3	112	0.00	29.384 
12:20	43.9	43.9	43.9	92	41.7	1	3	90	0.00	29.384 
12:25	44.1	44.1	44.1	92	41.9	2	3	90	0.00	29.384 
12:30	44.1	44.1	44.1	92	41.9	2	3	112	0.00	29.371 
12:35	44.5	44.5	44.5	93	42.6	2	3	90	0.00	29.371 
12:40	44.6	44.6	44.6	92	42.4	2	4	90	0.00	29.371 
12:45	44.8	44.8	44.8	91	42.3	2	4	112	0.00	29.355 
12:50	45.1	45.1	45.1	91	42.6	1	2	112	0.00	29.355 
12:55	45.4	45.4	45.4	91	42.9	2	4	90	0.00	29.355 
13:00	45.7	45.7	45.7	90	42.9	2	4	90	0.00	29.344 
13:05	45.8	45.8	45.8	89	42.7	2	3	112	0.00	29.344 
13:10	46.0	46.0	46.0	89	42.9	2	3	90	0.00	29.344 
13:15	46.1	46.1	46.1	89	43.0	2	4	112	0.00	29.336 
13:20	46.2	46.2	46.2	89	43.1	2	4	112	0.00	29.336 
13:25	46.1	46.1	46.1	89	43.0	3	6	90	0.00	29.336 
13:30	46.0	46.0	46.0	89	42.9	2	4	90	0.00	29.341 
13:35	45.8	45.8	45.8	89	42.7	1	3	112	0.00	29.341 
13:40	45.8	45.8	45.8	89	42.7	1	2	90	0.00	29.341 
13:45	45.7	45.7	45.7	88	42.4	0	2	90	0.00	29.345 
13:50	45.5	45.5	45.5	88	42.2	1	3	90	0.00	29.345 
13:55	45.4	45.4	45.4	88	42.1	1	2	90	0.00	29.345 
14:00	45.2	45.2	45.2	88	41.9	0	1	135	0.00	29.351 
14:05	45.1	45.1	45.1	89	42.1	0	1	135	0.01	29.351 
14:10	44.9	44.9	44.9	90	42.1	0	1	135	0.00	29.351 
14:15	44.8	44.8	44.8	91	42.3	0	1	135	0.01	29.335 
14:20	44.6	44.6	44.6	91	42.1	0	2	135	0.02	29.335 
14:25	44.5	44.5	44.5	92	42.3	1	2	135	0.01	29.335 
14:30	44.5	44.5	44.5	92	42.3	0	1	135	0.02	29.330 
14:35	44.3	44.3	44.3	92	42.1	0	0	---	0.01	29.330 
14:40	44.2	44.2	44.2	92	42.0	0	2	135	0.00	29.330 
14:45	44.1	44.1	44.1	93	42.2	1	2	135	0.00	29.331 
14:50	44.1	44.1	44.1	93	42.2	1	4	112	0.00	29.331 
14:55	44.2	44.2	44.2	93	42.3	1	2	112	0.00	29.331 
15:00	44.2	44.2	44.2	93	42.3	0	1	112	0.00	29.333 
15:05	44.2	44.2	44.2	93	42.3	0	1	112	0.01	29.333 
15:10	44.2	44.2	44.2	93	42.3	1	2	112	0.00	29.333 
15:15	44.2	44.2	44.2	93	42.3	1	2	112	0.00	29.321 
15:20	44.2	44.2	44.2	93	42.3	1	2	112	0.00	29.321 
15:25	44.2	44.2	44.2	94	42.6	0	1	112	0.00	29.321 
15:30	44.2	44.2	44.2	94	42.6	0	2	112	0.00	29.318 
15:35	44.3	44.3	44.3	94	42.7	0	2	112	0.00	29.318 
15:40	44.3	44.3	44.3	94	42.7	1	2	112	0.00	29.318 
15:45	44.5	44.5	44.5	94	42.9	1	2	112	0.00	29.316 
15:50	44.5	44.5	44.5	94	42.9	1	3	112	0.00	29.316 
15:55	44.6	44.6	44.6	94	43.0	1	3	112	0.00	29.316 
16:00	44.8	44.8	44.8	94	43.2	1	4	90	0.00	29.313 
16:05	44.9	44.9	44.9	94	43.3	0	3	90	0.00	29.313 
16:10	44.9	44.9	44.9	94	43.3	1	2	90	0.00	29.313 
16:15	44.9	44.9	44.9	94	43.3	0	1	90	0.00	29.312 
16:20	44.9	44.9	44.9	94	43.3	0	2	90	0.00	29.312 
16:25	44.9	44.9	44.9	94	43.3	1	2	90	0.00	29.312 
16:30	44.9	44.9	44.9	94	43.3	0	1	90	0.00	29.315 
16:35	44.9	44.9	44.9	94	43.3	1	2	90	0.00	29.315 
16:40	44.8	44.8	44.8	94	43.2	1	3	90	0.00	29.315 
16:45	44.8	44.8	44.8	94	43.2	1	3	90	0.00	29.317 
16:50	44.6	44.6	44.6	94	43.0	1	3	90	0.00	29.317 
16:55	44.5	44.5	44.5	94	42.9	1	2	90	0.00	29.317 
17:00	44.3	44.3	44.3	93	42.4	2	4	90	0.00	29.321 
17:05	44.2	44.2	44.2	93	42.3	1	4	90	0.00	29.321 
17:10	44.1	44.1	44.1	94	42.5	1	2	90	0.00	29.321 
17:15	44.1	44.1	44.1	94	42.5	0	1	90	0.00	29.320 
17:20	43.9	43.9	43.9	94	42.3	0	0	---	0.00	29.320 
17:25	43.9	43.9	43.9	94	42.3	0	0	---	0.00	29.320 
17:30	43.9	43.9	43.9	94	42.3	0	1	90	0.00	29.322 
17:35	43.9	43.9	43.9	94	42.3	0	1	90	0.00	29.322 
17:40	43.9	43.9	43.9	94	42.3	0	1	90	0.00	29.322 
17:45	43.8	43.8	43.8	94	42.2	0	1	90	0.00	29.328 
17:50	43.8	43.8	43.8	94	42.2	0	0	---	0.00	29.328 
17:55	43.8	43.8	43.8	94	42.2	0	0	---	0.00	29.328 
18:00	43.8	43.8	43.8	94	42.2	0	0	---	0.00	29.327 
18:05	43.6	43.6	43.6	94	42.0	0	0	---	0.00	29.327 
18:10	43.6	43.6	43.6	94	42.0	0	0	---	0.00	29.327 
18:15	43.6	43.6	43.6	94	42.0	0	0	---	0.00	29.328 
18:20	43.5	43.5	43.5	94	41.9	0	0	---	0.00	29.328 
18:25	43.5	43.5	43.5	94	41.9	0	0	---	0.00	29.328 
18:30	43.5	43.5	43.5	94	41.9	0	0	---	0.00	29.326 
18:35	43.6	43.6	43.6	94	42.0	0	0	---	0.00	29.326 
18:40	43.6	43.6	43.6	94	42.0	0	0	---	0.00	29.326 
18:45	43.6	43.6	43.6	94	42.0	0	0	---	0.00	29.322 
18:50	43.6	43.6	43.6	95	42.3	0	0	---	0.00	29.322 
18:55	43.6	43.6	43.6	95	42.3	0	0	---	0.00	29.322 
19:00	43.6	43.6	43.6	95	42.3	0	0	---	0.00	29.320 
19:05	43.6	43.6	43.6	95	42.3	0	0	---	0.00	29.320 
19:10	43.6	43.6	43.6	95	42.3	0	0	---	0.00	29.320 
19:15	43.6	43.6	43.6	95	42.3	0	0	---	0.00	29.322 
19:20	43.6	43.6	43.6	95	42.3	0	0	---	0.00	29.322 
19:25	43.8	43.8	43.8	95	42.5	0	0	---	0.00	29.322 
19:30	43.8	43.8	43.8	95	42.5	0	0	---	0.00	29.327 
19:35	43.8	43.8	43.8	95	42.5	0	1	90	0.00	29.327 
19:40	43.9	43.9	43.9	95	42.6	0	3	292	0.00	29.327 
19:45	43.9	43.9	43.9	95	42.6	1	4	292	0.00	29.330 
19:50	44.1	44.1	44.1	95	42.8	1	4	338	0.00	29.330 
19:55	43.9	43.9	43.9	95	42.6	1	3	315	0.01	29.330 
20:00	43.8	43.8	43.8	95	42.5	1	3	0	0.00	29.333 
20:05	43.5	43.5	43.5	95	42.2	1	3	0	0.00	29.333 
20:10	43.1	43.1	43.1	94	41.5	1	4	0	0.00	29.333 
20:15	42.6	42.6	42.6	94	41.0	2	4	338	0.00	29.332 
20:20	42.3	42.3	42.3	94	40.7	1	2	338	0.00	29.332 
20:25	41.9	41.9	41.9	94	40.3	1	4	338	0.00	29.332 
20:30	41.5	41.5	41.5	93	39.6	2	4	292	0.00	29.333 
20:35	40.9	40.9	40.9	92	38.8	1	3	270	0.00	29.333 
20:40	40.5	40.5	40.5	92	38.4	1	3	292	0.00	29.333 
20:45	40.2	40.2	40.2	93	38.3	1	4	292	0.00	29.337 
20:50	39.9	39.9	39.9	93	38.0	2	4	315	0.00	29.337 
20:55	39.6	39.6	39.6	92	37.5	1	4	270	0.00	29.337 
21:00	39.3	39.3	39.3	92	37.2	1	5	292	0.00	29.345 
21:05	38.9	38.9	38.9	92	36.8	2	5	270	0.00	29.345 
21:10	38.8	38.8	38.8	92	36.7	1	2	270	0.00	29.345 
21:15	38.8	38.8	38.8	93	37.0	1	3	270	0.00	29.351 
21:20	38.6	38.6	38.6	92	36.5	1	3	292	0.00	29.351 
21:25	38.3	38.3	38.3	92	36.2	2	5	338	0.00	29.351 
21:30	38.0	38.0	38.0	92	35.9	3	6	315	0.01	29.354 
21:35	37.9	37.9	37.9	92	35.8	2	4	315	0.00	29.354 
21:40	37.6	37.6	37.6	92	35.5	3	9	338	0.00	29.354 
21:45	37.5	37.5	37.5	92	35.4	2	5	338	0.00	29.356 
21:50	37.3	37.3	37.3	92	35.2	2	5	270	0.00	29.356 
21:55	37.2	37.2	37.2	92	35.1	2	7	315	0.01	29.356 
22:00	37.0	37.0	37.0	92	34.9	1	4	338	0.01	29.358 
22:05	37.0	37.0	37.0	93	35.2	1	3	338	0.00	29.358 
22:10	36.8	36.8	36.8	92	34.7	3	7	270	0.01	29.358 
22:15	36.6	36.6	36.6	93	34.8	2	4	338	0.00	29.365 
22:20	36.5	36.5	36.5	93	34.7	1	4	270	0.01	29.365 
22:25	36.3	36.3	36.3	93	34.5	2	5	315	0.00	29.365 
22:30	36.2	36.2	36.2	93	34.4	2	5	292	0.00	29.368 
22:35	36.2	36.2	36.2	93	34.4	2	7	270	0.01	29.368 
22:40	36.0	36.0	36.0	93	34.2	2	7	315	0.00	29.368 
22:45	36.0	36.0	36.0	93	34.2	2	6	292	0.00	29.371 
22:50	35.9	35.9	35.9	93	34.1	2	9	292	0.00	29.371 
22:55	35.9	35.9	35.9	93	34.1	3	7	315	0.00	29.371 
23:00	35.8	35.8	35.8	93	34.0	1	4	292	0.00	29.375 
23:05	35.8	35.8	35.8	93	34.0	3	7	292	0.01	29.375 
23:10	35.8	35.8	35.8	93	34.0	2	11	292	0.01	29.375 
23:15	35.6	35.6	35.6	93	33.8	2	5	270	0.00	29.373 
23:20	35.6	35.6	35.6	93	33.8	1	6	270	0.01	29.373 
23:25	35.6	35.6	35.6	93	33.8	2	5	315	0.01	29.373 
23:30	35.6	35.6	35.6	93	33.8	1	4	0	0.01	29.377 
23:35	35.6	35.6	35.6	93	33.8	1	4	292	0.00	29.377 
23:40	35.6	35.6	35.6	93	33.8	2	4	338	0.00	29.377 
23:45	35.5	35.5	35.5	93	33.7	1	5	292	0.01	29.381 
23:50	35.5	35.5	35.5	93	33.7	2	6	292	0.00	29.381 
23:55	35.5	35.5	35.5	93	33.7	2	5	292	0.01	29.381 

CoCoRaHS
IN-AL-39
A2 Web Hosting
Creative Commons License
GoDaddy
Look for:

loaded 2017-12-13 20:02:05 • last modified 2010-11-18 10:43:29
Privacy PolicyDisclaimer
• wx.awcolley.com is powered by PmWiki v.2002016 •
• all content (unless otherwise noted) © 2017 A W Colley